Time;durP1;ratioP1;P1;durP2;ratioP2;P2;SDS_P1;SDS_P2;PMS_P1;PMS_P2;Temp;Humidity;BMP_temperature;BMP_pressure;BME280_temperature;BME280_humidity;BME280_pressure;Samples;Min_cycle;Max_cycle;Signal;HPM_P1;HPM_P2
2023/05/16 00:04:02;;;;;;;8.93;7.25;;;;;;;;;;10210449;28;20049;-72
2023/05/16 00:08:59;;;;;;;8.50;7.60;;;;;;;;;;10275578;28;20076;-71
2023/05/16 00:13:55;;;;;;;8.48;7.57;;;;;;;;;;10247554;28;20481;-72
2023/05/16 00:18:51;;;;;;;10.43;9.43;;;;;;;;;;10275430;28;20053;-71
2023/05/16 00:23:48;;;;;;;10.57;8.38;;;;;;;;;;10233982;28;20048;-71
2023/05/16 00:28:45;;;;;;;8.40;7.60;;;;;;;;;;10274713;28;20059;-72
2023/05/16 00:33:41;;;;;;;6.28;5.50;;;;;;;;;;10205094;28;20538;-72
2023/05/16 00:38:37;;;;;;;6.95;6.07;;;;;;;;;;10270487;28;20485;-72
2023/05/16 00:43:33;;;;;;;12.20;6.65;;;;;;;;;;10200228;28;20418;-72
2023/05/16 00:48:30;;;;;;;8.30;5.45;;;;;;;;;;10232355;28;20053;-72
2023/05/16 00:53:29;;;;;;;6.18;5.40;;;;;;;;;;10200853;28;20045;-72
2023/05/16 00:58:27;;;;;;;7.68;5.00;;;;;;;;;;10216790;28;20045;-72
2023/05/16 01:03:33;;;;;;;6.65;4.70;;;;;;;;;;10198271;28;20132;-72
2023/05/16 01:08:29;;;;;;;5.72;4.72;;;;;;;;;;10189959;28;20050;-72
2023/05/16 01:13:28;;;;;;;5.07;4.03;;;;;;;;;;10198670;28;20106;-72
2023/05/16 01:18:36;;;;;;;7.78;4.97;;;;;;;;;;10271862;28;20716;-72
2023/05/16 01:23:33;;;;;;;10.32;4.80;;;;;;;;;;10250434;28;20053;-72
2023/05/16 01:28:30;;;;;;;7.50;4.65;;;;;;;;;;10272997;28;20510;-72
2023/05/16 01:33:26;;;;;;;8.05;4.65;;;;;;;;;;10223305;28;20041;-72
2023/05/16 01:38:25;;;;;;;7.07;4.63;;;;;;;;;;10267836;28;20048;-72
2023/05/16 01:43:29;;;;;;;5.78;4.90;;;;;;;;;;10209842;28;20515;-72
2023/05/16 01:48:29;;;;;;;5.88;5.20;;;;;;;;;;10244259;28;20420;-72
2023/05/16 01:53:35;;;;;;;9.88;5.40;;;;;;;;;;10197836;28;20056;-72
2023/05/16 01:58:32;;;;;;;10.35;5.40;;;;;;;;;;10248260;28;20124;-72
2023/05/16 02:03:29;;;;;;;10.52;5.50;;;;;;;;;;10198557;28;20076;-72
2023/05/16 02:08:27;;;;;;;9.75;4.80;;;;;;;;;;10216419;28;20050;-72
2023/05/16 02:13:23;;;;;;;13.68;5.40;;;;;;;;;;10194110;28;20052;-71
2023/05/16 02:18:22;;;;;;;10.90;6.05;;;;;;;;;;10230842;28;20053;-72
2023/05/16 02:23:18;;;;;;;11.13;5.13;;;;;;;;;;10224454;28;20057;-72
2023/05/16 02:28:14;;;;;;;7.50;4.70;;;;;;;;;;10272171;28;20094;-71
2023/05/16 02:33:11;;;;;;;9.55;4.20;;;;;;;;;;10216392;28;20068;-72
2023/05/16 02:38:07;;;;;;;9.25;4.78;;;;;;;;;;10271405;28;20095;-72
2023/05/16 02:43:04;;;;;;;18.52;5.28;;;;;;;;;;10209392;28;20046;-72
2023/05/16 02:48:01;;;;;;;11.32;4.50;;;;;;;;;;10252064;28;20424;-72
2023/05/16 02:52:58;;;;;;;14.40;4.78;;;;;;;;;;10191161;28;20073;-72
2023/05/16 02:57:55;;;;;;;10.27;4.30;;;;;;;;;;10217743;28;20050;-72
2023/05/16 03:02:51;;;;;;;10.70;4.53;;;;;;;;;;10189887;28;20069;-71
2023/05/16 03:07:47;;;;;;;10.73;5.28;;;;;;;;;;10202253;28;20061;-71
2023/05/16 03:12:44;;;;;;;14.65;6.13;;;;;;;;;;10198153;28;20072;-72
2023/05/16 03:17:41;;;;;;;12.68;5.50;;;;;;;;;;10273152;28;20502;-72
2023/05/16 03:22:39;;;;;;;11.77;5.03;;;;;;;;;;10212210;28;20050;-72
2023/05/16 03:27:35;;;;;;;16.00;5.63;;;;;;;;;;10252490;28;20558;-71
2023/05/16 03:32:31;;;;;;;13.02;5.22;;;;;;;;;;10197711;28;20046;-72
2023/05/16 03:37:28;;;;;;;10.02;5.05;;;;;;;;;;10233404;28;20486;-72
2023/05/16 03:42:24;;;;;;;16.85;5.15;;;;;;;;;;10211988;28;20049;-72
2023/05/16 03:47:20;;;;;;;17.23;5.35;;;;;;;;;;10196638;28;20504;-71
2023/05/16 03:52:19;;;;;;;8.45;4.65;;;;;;;;;;10196808;28;20042;-71
2023/05/16 03:57:16;;;;;;;13.70;5.35;;;;;;;;;;10264803;28;20060;-71
2023/05/16 04:02:12;;;;;;;17.90;6.15;;;;;;;;;;10219314;28;20054;-72
2023/05/16 04:07:08;;;;;;;12.98;5.65;;;;;;;;;;10261958;28;20503;-72
2023/05/16 04:12:05;;;;;;;14.90;5.78;;;;;;;;;;10221207;28;20042;-72
2023/05/16 04:17:01;;;;;;;16.75;5.60;;;;;;;;;;10254089;28;20110;-72
2023/05/16 04:21:58;;;;;;;15.02;6.03;;;;;;;;;;10195482;28;20124;-72
2023/05/16 04:26:54;;;;;;;16.85;5.70;;;;;;;;;;10235678;28;20141;-73
2023/05/16 04:31:50;;;;;;;11.75;4.85;;;;;;;;;;10194986;28;20096;-72
2023/05/16 04:36:46;;;;;;;11.90;5.55;;;;;;;;;;10201677;28;20526;-72
2023/05/16 04:41:43;;;;;;;20.08;7.93;;;;;;;;;;10194032;28;20484;-72
2023/05/16 04:46:40;;;;;;;17.83;6.55;;;;;;;;;;10251952;28;20124;-72
2023/05/16 04:51:36;;;;;;;17.50;7.10;;;;;;;;;;10273657;28;20128;-73
2023/05/16 04:56:33;;;;;;;13.48;6.93;;;;;;;;;;10270023;28;20416;-71
2023/05/16 05:01:29;;;;;;;15.52;7.05;;;;;;;;;;10274380;28;20561;-71
2023/05/16 05:06:25;;;;;;;11.60;6.57;;;;;;;;;;10265845;28;20045;-71
2023/05/16 05:11:22;;;;;;;13.30;6.80;;;;;;;;;;10254149;28;20407;-71
2023/05/16 05:16:18;;;;;;;11.02;6.63;;;;;;;;;;10245797;28;20132;-71
2023/05/16 05:21:14;;;;;;;14.65;7.35;;;;;;;;;;10230162;28;20077;-72
2023/05/16 05:26:11;;;;;;;12.07;7.03;;;;;;;;;;10257092;28;20486;-72
2023/05/16 05:31:07;;;;;;;13.48;7.18;;;;;;;;;;10218186;28;20053;-71
2023/05/16 05:36:03;;;;;;;12.73;6.68;;;;;;;;;;10241508;28;20056;-72
2023/05/16 05:41:00;;;;;;;12.68;7.07;;;;;;;;;;10219575;28;20145;-72
2023/05/16 05:45:56;;;;;;;16.67;8.45;;;;;;;;;;10238876;28;20132;-72
2023/05/16 05:50:52;;;;;;;14.45;7.40;;;;;;;;;;10217097;28;20042;-71
2023/05/16 05:55:49;;;;;;;14.13;6.07;;;;;;;;;;10235995;28;20052;-71
2023/05/16 06:00:45;;;;;;;13.95;5.80;;;;;;;;;;10211537;28;20097;-72
2023/05/16 06:05:41;;;;;;;18.08;7.07;;;;;;;;;;10234296;28;20415;-72
2023/05/16 06:10:38;;;;;;;15.15;6.10;;;;;;;;;;10195581;28;20069;-71
2023/05/16 06:15:34;;;;;;;11.80;5.97;;;;;;;;;;10232799;28;20049;-71
2023/05/16 06:20:30;;;;;;;9.93;5.68;;;;;;;;;;10193122;28;20502;-71
2023/05/16 06:25:26;;;;;;;11.55;6.15;;;;;;;;;;10209801;28;20407;-71
2023/05/16 06:30:23;;;;;;;10.75;5.90;;;;;;;;;;10191712;28;20522;-72
2023/05/16 06:35:19;;;;;;;13.07;6.07;;;;;;;;;;10206130;28;20081;-72
2023/05/16 06:40:16;;;;;;;13.30;5.40;;;;;;;;;;10191330;28;20053;-71
2023/05/16 06:45:12;;;;;;;10.15;5.80;;;;;;;;;;10233352;28;20120;-72
2023/05/16 06:50:11;;;;;;;11.25;6.13;;;;;;;;;;10279708;28;20095;-72
2023/05/16 06:55:08;;;;;;;14.07;6.75;;;;;;;;;;10247881;28;20123;-71
2023/05/16 07:00:04;;;;;;;15.18;5.88;;;;;;;;;;10267290;28;20054;-72
2023/05/16 07:05:01;;;;;;;13.82;6.75;;;;;;;;;;10246348;28;20449;-72
2023/05/16 07:09:57;;;;;;;10.85;5.55;;;;;;;;;;10238026;28;20085;-72
2023/05/16 07:14:54;;;;;;;11.07;5.45;;;;;;;;;;10227230;28;20073;-71
2023/05/16 07:19:50;;;;;;;14.55;6.22;;;;;;;;;;10217224;28;20049;-72
2023/05/16 07:24:46;;;;;;;12.77;5.65;;;;;;;;;;10225696;28;20140;-72
2023/05/16 07:29:43;;;;;;;10.00;6.00;;;;;;;;;;10216488;28;20054;-72
2023/05/16 07:34:39;;;;;;;12.80;6.18;;;;;;;;;;10222385;28;20041;-71
2023/05/16 07:39:36;;;;;;;10.32;5.47;;;;;;;;;;10199342;28;20053;-71
2023/05/16 07:44:32;;;;;;;8.88;5.13;;;;;;;;;;10206017;28;20046;-71
2023/05/16 07:49:28;;;;;;;13.50;5.68;;;;;;;;;;10211655;28;20053;-72
2023/05/16 07:54:25;;;;;;;13.48;5.55;;;;;;;;;;10217385;28;20568;-72
2023/05/16 07:59:21;;;;;;;8.30;5.40;;;;;;;;;;10276838;28;20094;-71
2023/05/16 08:04:18;;;;;;;6.88;5.05;;;;;;;;;;10223646;28;20048;-72
2023/05/16 08:09:15;;;;;;;8.30;4.72;;;;;;;;;;10274835;28;20041;-72
2023/05/16 08:14:11;;;;;;;12.23;4.95;;;;;;;;;;10218621;28;20052;-72
2023/05/16 08:19:10;;;;;;;10.13;4.93;;;;;;;;;;10275825;28;20048;-71
2023/05/16 08:24:07;;;;;;;8.70;5.60;;;;;;;;;;10243185;28;20106;-71
2023/05/16 08:29:03;;;;;;;12.40;6.20;;;;;;;;;;10243242;28;20116;-71
2023/05/16 08:34:00;;;;;;;15.00;5.50;;;;;;;;;;10210157;28;20045;-71
2023/05/16 08:38:56;;;;;;;9.57;5.20;;;;;;;;;;10233166;28;20697;-72
2023/05/16 08:43:53;;;;;;;13.45;5.60;;;;;;;;;;10208396;28;20049;-72
2023/05/16 08:48:51;;;;;;;13.15;5.70;;;;;;;;;;10199563;28;20068;-72
2023/05/16 08:53:58;;;;;;;9.23;5.55;;;;;;;;;;10206779;28;20041;-72
2023/05/16 08:58:55;;;;;;;14.52;5.40;;;;;;;;;;10196379;28;20054;-72
2023/05/16 09:03:52;;;;;;;9.48;5.35;;;;;;;;;;10209907;28;20444;-72
2023/05/16 09:08:48;;;;;;;14.07;5.30;;;;;;;;;;10193541;28;20069;-72
2023/05/16 09:13:44;;;;;;;7.85;5.50;;;;;;;;;;10203127;28;20041;-72
2023/05/16 09:18:44;;;;;;;9.65;5.85;;;;;;;;;;10273434;28;20514;-72
2023/05/16 09:23:42;;;;;;;14.60;5.55;;;;;;;;;;10223123;28;20052;-72
2023/05/16 09:28:38;;;;;;;9.60;5.25;;;;;;;;;;10262792;28;20085;-72
2023/05/16 09:33:40;;;;;;;10.95;4.88;;;;;;;;;;10201765;28;20506;-71
2023/05/16 09:38:36;;;;;;;15.00;5.93;;;;;;;;;;10257261;28;20077;-71
2023/05/16 09:43:33;;;;;;;11.57;5.38;;;;;;;;;;10201262;28;20848;-72
2023/05/16 09:48:32;;;;;;;7.95;5.32;;;;;;;;;;10220129;28;20046;-72
2023/05/16 09:53:30;;;;;;;9.75;6.05;;;;;;;;;;10214269;28;20041;-72
2023/05/16 09:58:30;;;;;;;9.15;5.90;;;;;;;;;;10207951;28;20508;-72
2023/05/16 10:03:27;;;;;;;8.20;5.18;;;;;;;;;;10198863;28;20060;-72
2023/05/16 10:08:24;;;;;;;10.68;5.50;;;;;;;;;;10271973;28;20051;-72
2023/05/16 10:13:22;;;;;;;13.13;5.57;;;;;;;;;;10227686;28;20042;-72
2023/05/16 10:18:20;;;;;;;8.02;5.10;;;;;;;;;;10277751;28;20112;-72
2023/05/16 10:23:20;;;;;;;14.02;5.78;;;;;;;;;;10209359;28;20070;-73
2023/05/16 10:28:16;;;;;;;9.90;5.57;;;;;;;;;;10275244;28;20045;-73
2023/05/16 10:33:14;;;;;;;9.65;5.43;;;;;;;;;;10215024;28;20038;-72
2023/05/16 10:38:12;;;;;;;12.55;5.55;;;;;;;;;;10199156;28;20045;-73
2023/05/16 10:43:21;;;;;;;16.05;5.65;;;;;;;;;;10200671;28;20697;-73
2023/05/16 10:48:27;;;;;;;14.73;6.05;;;;;;;;;;10241145;28;20045;-73
2023/05/16 10:53:29;;;;;;;31.08;5.88;;;;;;;;;;10203918;28;20122;-72
2023/05/16 10:58:37;;;;;;;10.35;6.07;;;;;;;;;;10227564;28;20053;-72
2023/05/16 11:03:34;;;;;;;10.75;5.97;;;;;;;;;;10206716;28;20422;-72
2023/05/16 11:08:33;;;;;;;17.38;6.20;;;;;;;;;;10206256;28;20057;-72
2023/05/16 11:13:31;;;;;;;10.65;5.70;;;;;;;;;;10220072;28;20049;-73
2023/05/16 11:18:30;;;;;;;6.40;5.05;;;;;;;;;;10199681;28;20085;-72
2023/05/16 11:23:27;;;;;;;8.82;6.00;;;;;;;;;;10203970;28;20506;-72
2023/05/16 11:28:24;;;;;;;6.43;5.60;;;;;;;;;;10277183;28;20041;-72
2023/05/16 11:33:21;;;;;;;7.72;5.15;;;;;;;;;;10226401;28;20455;-72
2023/05/16 11:38:17;;;;;;;12.18;5.15;;;;;;;;;;10266742;28;20054;-72
2023/05/16 11:43:17;;;;;;;8.32;4.47;;;;;;;;;;10199694;28;20424;-72
2023/05/16 11:48:14;;;;;;;5.93;4.60;;;;;;;;;;10238793;28;20054;-72
2023/05/16 11:53:28;;;;;;;6.80;4.38;;;;;;;;;;10202976;28;20045;-72
2023/05/16 11:58:24;;;;;;;8.25;4.70;;;;;;;;;;10227912;28;20562;-72
2023/05/16 12:03:22;;;;;;;5.28;4.75;;;;;;;;;;10200581;28;20081;-72
2023/05/16 12:08:20;;;;;;;7.85;4.65;;;;;;;;;;10223532;28;20686;-72
2023/05/16 12:13:17;;;;;;;9.20;5.30;;;;;;;;;;10199106;28;20092;-72
2023/05/16 12:18:15;;;;;;;15.95;5.78;;;;;;;;;;10215447;28;20125;-72
2023/05/16 12:23:13;;;;;;;6.90;5.53;;;;;;;;;;10197633;28;20062;-71
2023/05/16 12:28:12;;;;;;;6.47;4.82;;;;;;;;;;10201106;28;20557;-71
2023/05/16 12:33:08;;;;;;;9.90;5.07;;;;;;;;;;10211150;28;20050;-72
2023/05/16 12:38:06;;;;;;;8.45;4.93;;;;;;;;;;10274820;28;20498;-72
2023/05/16 12:43:02;;;;;;;7.90;4.95;;;;;;;;;;10240535;28;20050;-72
2023/05/16 12:48:12;;;;;;;7.70;4.72;;;;;;;;;;10274931;28;20049;-72
2023/05/16 12:53:12;;;;;;;10.02;5.40;;;;;;;;;;10235639;28;20100;-72
2023/05/16 12:58:09;;;;;;;12.32;4.97;;;;;;;;;;10274154;28;20099;-72
2023/05/16 13:03:06;;;;;;;11.00;4.70;;;;;;;;;;10202481;28;20056;-72
2023/05/16 13:08:03;;;;;;;10.75;5.20;;;;;;;;;;10212286;28;20046;-72
2023/05/16 13:13:00;;;;;;;8.15;5.20;;;;;;;;;;10193368;28;20107;-72
2023/05/16 13:17:57;;;;;;;10.13;5.28;;;;;;;;;;10272784;28;20106;-72
2023/05/16 13:22:54;;;;;;;7.30;5.20;;;;;;;;;;10255934;28;20049;-72
2023/05/16 13:27:51;;;;;;;10.20;5.50;;;;;;;;;;10271595;28;20461;-72
2023/05/16 13:32:47;;;;;;;7.55;4.93;;;;;;;;;;10218754;28;20046;-72
2023/05/16 13:37:43;;;;;;;5.45;4.68;;;;;;;;;;10268453;28;20053;-72
2023/05/16 13:42:40;;;;;;;6.63;4.82;;;;;;;;;;10204687;28;20423;-72
2023/05/16 13:47:39;;;;;;;7.30;4.18;;;;;;;;;;10267278;28;20550;-72
2023/05/16 13:52:36;;;;;;;7.85;5.38;;;;;;;;;;10199389;28;20526;-72
2023/05/16 13:57:33;;;;;;;5.00;4.28;;;;;;;;;;10265565;28;20148;-72
2023/05/16 14:02:30;;;;;;;6.07;3.75;;;;;;;;;;10192177;28;20050;-72
2023/05/16 14:07:26;;;;;;;6.43;4.20;;;;;;;;;;10229246;28;20042;-72
2023/05/16 14:12:22;;;;;;;5.75;4.40;;;;;;;;;;10192293;28;20038;-73
2023/05/16 14:17:19;;;;;;;6.50;4.43;;;;;;;;;;10215551;28;20069;-73
2023/05/16 14:22:17;;;;;;;9.05;4.90;;;;;;;;;;10191977;28;20076;-72
2023/05/16 14:27:15;;;;;;;9.25;4.85;;;;;;;;;;10263942;28;20075;-72
2023/05/16 14:32:12;;;;;;;9.45;5.35;;;;;;;;;;10266219;28;20050;-72
2023/05/16 14:37:10;;;;;;;10.45;5.53;;;;;;;;;;10258346;28;20049;-72
2023/05/16 14:42:06;;;;;;;7.22;5.00;;;;;;;;;;10264225;28;20042;-72
2023/05/16 14:47:04;;;;;;;9.27;5.05;;;;;;;;;;10263434;28;20049;-72
2023/05/16 14:52:00;;;;;;;6.95;4.50;;;;;;;;;;10257783;28;20038;-72
2023/05/16 14:56:58;;;;;;;5.30;4.60;;;;;;;;;;10254673;28;20041;-72
2023/05/16 15:01:55;;;;;;;4.80;4.05;;;;;;;;;;10233905;28;20077;-72
2023/05/16 15:06:51;;;;;;;7.88;4.85;;;;;;;;;;10260642;28;20045;-71
2023/05/16 15:11:47;;;;;;;8.13;5.15;;;;;;;;;;10238186;28;20504;-72
2023/05/16 15:16:45;;;;;;;8.20;5.18;;;;;;;;;;10257488;28;20078;-72
2023/05/16 15:21:42;;;;;;;8.05;4.57;;;;;;;;;;10224095;28;20057;-72
2023/05/16 15:26:38;;;;;;;9.38;4.47;;;;;;;;;;10245048;28;20103;-72
2023/05/16 15:31:35;;;;;;;10.50;5.20;;;;;;;;;;10199113;28;20053;-72
2023/05/16 15:36:31;;;;;;;7.40;4.50;;;;;;;;;;10242662;28;20042;-72
2023/05/16 15:41:27;;;;;;;15.07;5.03;;;;;;;;;;10197732;28;20050;-71
2023/05/16 15:46:44;;;;;;;9.00;5.22;;;;;;;;;;10237079;28;20066;-71
2023/05/16 15:51:40;;;;;;;8.93;5.20;;;;;;;;;;10196143;28;20050;-72
2023/05/16 15:56:36;;;;;;;10.45;5.65;;;;;;;;;;10201132;28;20463;-72
2023/05/16 16:01:32;;;;;;;12.73;5.13;;;;;;;;;;10196275;28;20065;-72
2023/05/16 16:06:30;;;;;;;10.48;5.28;;;;;;;;;;10251838;28;20716;-72
2023/05/16 16:11:26;;;;;;;10.23;5.43;;;;;;;;;;10262370;28;20048;-72
2023/05/16 16:16:22;;;;;;;10.68;5.95;;;;;;;;;;10249155;28;20052;-72
2023/05/16 16:21:19;;;;;;;10.77;5.35;;;;;;;;;;10243111;28;20771;-72
2023/05/16 16:26:16;;;;;;;34.25;5.55;;;;;;;;;;10260437;28;20045;-72
2023/05/16 16:31:12;;;;;;;8.95;5.32;;;;;;;;;;10243949;28;20049;-72
2023/05/16 16:36:09;;;;;;;8.32;5.95;;;;;;;;;;10245100;28;20051;-72
2023/05/16 16:41:05;;;;;;;11.00;5.20;;;;;;;;;;10210807;28;20053;-72
2023/05/16 16:46:01;;;;;;;7.07;4.93;;;;;;;;;;10222669;28;20049;-71
2023/05/16 16:50:57;;;;;;;6.32;4.85;;;;;;;;;;10195096;28;20050;-71
2023/05/16 16:55:54;;;;;;;9.93;4.78;;;;;;;;;;10240302;28;20555;-72
2023/05/16 17:00:50;;;;;;;10.13;5.03;;;;;;;;;;10265567;28;20554;-72
2023/05/16 17:05:47;;;;;;;8.88;5.53;;;;;;;;;;10237803;28;20128;-72
2023/05/16 17:10:43;;;;;;;9.93;5.10;;;;;;;;;;10257775;28;20551;-72
2023/05/16 17:15:40;;;;;;;11.38;5.78;;;;;;;;;;10235840;28;20056;-72
2023/05/16 17:20:36;;;;;;;9.30;5.47;;;;;;;;;;10239976;28;20706;-71
2023/05/16 17:25:32;;;;;;;9.15;6.00;;;;;;;;;;10247694;28;20045;-72
2023/05/16 17:30:29;;;;;;;13.10;6.32;;;;;;;;;;10227915;28;20046;-71
2023/05/16 17:35:26;;;;;;;15.50;6.20;;;;;;;;;;10230867;28;20103;-71
2023/05/16 17:40:23;;;;;;;13.48;5.68;;;;;;;;;;10193582;28;20499;-72
2023/05/16 17:45:19;;;;;;;19.05;7.15;;;;;;;;;;10199725;28;20077;-76
2023/05/16 17:50:19;;;;;;;12.38;6.38;;;;;;;;;;10231719;28;20496;-77
2023/05/16 17:55:15;;;;;;;11.00;5.85;;;;;;;;;;10246139;28;20053;-77
2023/05/16 18:00:13;;;;;;;15.85;6.72;;;;;;;;;;10273261;28;20118;-76
2023/05/16 18:05:10;;;;;;;17.70;6.80;;;;;;;;;;10232371;28;20049;-78
2023/05/16 18:10:09;;;;;;;16.85;6.78;;;;;;;;;;10256912;28;20037;-77
2023/05/16 18:15:05;;;;;;;19.05;6.43;;;;;;;;;;10225283;28;20045;-77
2023/05/16 18:20:08;;;;;;;16.83;6.30;;;;;;;;;;10247086;28;20511;-77
2023/05/16 18:25:08;;;;;;;20.25;7.68;;;;;;;;;;10225353;28;20128;-77
2023/05/16 18:30:04;;;;;;;20.05;6.53;;;;;;;;;;10238160;28;20050;-75
2023/05/16 18:35:01;;;;;;;15.75;6.85;;;;;;;;;;10225259;28;20061;-77
2023/05/16 18:39:57;;;;;;;19.27;6.75;;;;;;;;;;10259700;28;20053;-77
2023/05/16 18:44:53;;;;;;;16.40;7.13;;;;;;;;;;10254834;28;20084;-77
2023/05/16 18:49:50;;;;;;;16.05;7.38;;;;;;;;;;10234258;28;20054;-77
2023/05/16 18:54:46;;;;;;;15.45;6.93;;;;;;;;;;10226891;28;20052;-77
2023/05/16 18:59:43;;;;;;;20.10;7.20;;;;;;;;;;10220082;28;20060;-77
2023/05/16 19:04:39;;;;;;;25.05;8.27;;;;;;;;;;10224613;28;20045;-77
2023/05/16 19:09:36;;;;;;;26.75;8.52;;;;;;;;;;10240861;28;20041;-77
2023/05/16 19:14:32;;;;;;;20.98;7.32;;;;;;;;;;10236055;28;20101;-77
2023/05/16 19:19:28;;;;;;;18.67;7.72;;;;;;;;;;10198035;28;20049;-78
2023/05/16 19:24:25;;;;;;;19.58;7.93;;;;;;;;;;10219790;28;20549;-77
2023/05/16 19:29:21;;;;;;;18.38;8.23;;;;;;;;;;10278636;28;20041;-77
2023/05/16 19:34:19;;;;;;;22.05;7.88;;;;;;;;;;10257383;28;20127;-76
2023/05/16 19:39:16;;;;;;;22.50;7.00;;;;;;;;;;10278276;28;20083;-77
2023/05/16 19:44:12;;;;;;;19.77;8.30;;;;;;;;;;10257803;28;20723;-76
2023/05/16 19:49:09;;;;;;;25.58;9.85;;;;;;;;;;10269475;28;20049;-77
2023/05/16 19:54:06;;;;;;;24.15;8.07;;;;;;;;;;10245597;28;20450;-76
2023/05/16 19:59:02;;;;;;;23.35;7.90;;;;;;;;;;10254358;28;20061;-70
2023/05/16 20:03:59;;;;;;;20.75;8.25;;;;;;;;;;10236930;28;20054;-71
2023/05/16 20:08:55;;;;;;;19.73;8.10;;;;;;;;;;10221119;28;20042;-71
2023/05/16 20:13:54;;;;;;;16.20;6.38;;;;;;;;;;10209915;28;20037;-70
2023/05/16 20:18:50;;;;;;;13.93;7.30;;;;;;;;;;10215238;28;20470;-70
2023/05/16 20:23:47;;;;;;;17.52;6.75;;;;;;;;;;10207564;28;20438;-70
2023/05/16 20:28:46;;;;;;;20.13;7.70;;;;;;;;;;10210838;28;20645;-70
2023/05/16 20:33:42;;;;;;;22.85;7.93;;;;;;;;;;10205867;28;20527;-70
2023/05/16 20:38:38;;;;;;;22.08;8.30;;;;;;;;;;10274694;28;20528;-70
2023/05/16 20:43:34;;;;;;;17.20;6.97;;;;;;;;;;10234017;28;20068;-70
2023/05/16 20:48:31;;;;;;;22.35;7.40;;;;;;;;;;10276074;28;20053;-70
2023/05/16 20:53:27;;;;;;;22.48;7.07;;;;;;;;;;10231006;28;20068;-70
2023/05/16 20:58:24;;;;;;;20.38;8.63;;;;;;;;;;10274807;28;20079;-70
2023/05/16 21:03:20;;;;;;;18.88;7.60;;;;;;;;;;10218618;28;20077;-70
2023/05/16 21:08:16;;;;;;;21.23;6.97;;;;;;;;;;10263455;28;20546;-70
2023/05/16 21:13:13;;;;;;;21.60;7.88;;;;;;;;;;10196629;28;20046;-70
2023/05/16 21:18:09;;;;;;;19.40;7.78;;;;;;;;;;10254185;28;20084;-70
2023/05/16 21:23:05;;;;;;;21.58;7.35;;;;;;;;;;10194409;28;20402;-70
2023/05/16 21:28:02;;;;;;;27.13;7.32;;;;;;;;;;10214883;28;20112;-69
2023/05/16 21:32:58;;;;;;;23.00;7.63;;;;;;;;;;10193437;28;20046;-70
2023/05/16 21:37:55;;;;;;;28.40;8.15;;;;;;;;;;10272671;28;20544;-70
2023/05/16 21:42:51;;;;;;;22.92;8.45;;;;;;;;;;10236111;28;20053;-70
2023/05/16 21:47:48;;;;;;;25.83;7.45;;;;;;;;;;10192976;28;20096;-70
2023/05/16 21:52:44;;;;;;;24.98;8.02;;;;;;;;;;10193062;28;20050;-70
2023/05/16 21:57:41;;;;;;;17.08;6.82;;;;;;;;;;10268554;28;20057;-70
2023/05/16 22:02:37;;;;;;;22.33;7.30;;;;;;;;;;10202763;28;20052;-70
2023/05/16 22:07:34;;;;;;;20.38;7.97;;;;;;;;;;10256929;28;20104;-70
2023/05/16 22:12:30;;;;;;;24.30;8.35;;;;;;;;;;10197118;28;20088;-70
2023/05/16 22:17:27;;;;;;;24.08;7.50;;;;;;;;;;10241294;28;20108;-70
2023/05/16 22:22:23;;;;;;;25.52;7.63;;;;;;;;;;10200197;28;20046;-70
2023/05/16 22:27:20;;;;;;;25.48;7.38;;;;;;;;;;10212867;28;20057;-70
2023/05/16 22:32:16;;;;;;;27.77;7.35;;;;;;;;;;10200812;28;20466;-70
2023/05/16 22:37:12;;;;;;;25.95;6.88;;;;;;;;;;10268281;28;20098;-70
2023/05/16 22:42:09;;;;;;;24.13;7.82;;;;;;;;;;10281232;28;20045;-70
2023/05/16 22:47:05;;;;;;;22.60;7.45;;;;;;;;;;10267975;28;20392;-70
2023/05/16 22:52:02;;;;;;;20.73;6.82;;;;;;;;;;10266590;28;20061;-69
2023/05/16 22:56:58;;;;;;;22.30;7.47;;;;;;;;;;10263217;28;20069;-69
2023/05/16 23:01:54;;;;;;;25.70;8.43;;;;;;;;;;10230593;28;20100;-70
2023/05/16 23:06:51;;;;;;;17.02;6.68;;;;;;;;;;10269119;28;20434;-69
2023/05/16 23:11:47;;;;;;;32.88;9.32;;;;;;;;;;10217388;28;20057;-70
2023/05/16 23:16:43;;;;;;;22.98;6.75;;;;;;;;;;10254721;28;20102;-70
2023/05/16 23:21:40;;;;;;;19.67;6.38;;;;;;;;;;10198174;28;20063;-69
2023/05/16 23:26:38;;;;;;;24.58;7.35;;;;;;;;;;10243742;28;20496;-70
2023/05/16 23:31:35;;;;;;;16.65;6.55;;;;;;;;;;10198234;28;20129;-70
2023/05/16 23:36:31;;;;;;;16.02;6.70;;;;;;;;;;10229116;28;20077;-70
2023/05/16 23:41:27;;;;;;;17.10;5.63;;;;;;;;;;10198225;28;20080;-70
2023/05/16 23:46:23;;;;;;;12.00;5.75;;;;;;;;;;10225210;28;20049;-69
2023/05/16 23:51:20;;;;;;;23.75;5.82;;;;;;;;;;10198059;28;20069;-69
2023/05/16 23:56:16;;;;;;;12.52;5.20;;;;;;;;;;10249838;28;20114;-70
